Time;durP1;ratioP1;P1;durP2;ratioP2;P2;SDS_P1;SDS_P2;PMS_P1;PMS_P2;Temp;Humidity;BMP_temperature;BMP_pressure;BME280_temperature;BME280_humidity;BME280_pressure;Samples;Min_cycle;Max_cycle;Signal;HPM_P1;HPM_P2
2023/04/06 00:01:10;;;;;;;2.85;1.58;;;;;;;;;;5056867;28;20112;-21
2023/04/06 00:03:36;;;;;;;5.70;1.92;;;;;;;;;;5057925;28;20074;-23
2023/04/06 00:06:02;;;;;;;1.83;1.58;;;;;;;;;;5056782;28;20025;-22
2023/04/06 00:08:28;;;;;;;3.67;1.48;;;;;;;;;;5056991;28;20078;-22
2023/04/06 00:10:54;;;;;;;7.80;2.58;;;;;;;;;;5039104;28;20091;-22
2023/04/06 00:13:21;;;;;;;3.22;1.52;;;;;;;;;;5056681;28;20356;-23
2023/04/06 00:15:47;;;;;;;2.72;2.08;;;;;;;;;;5056608;28;20028;-22
2023/04/06 00:18:13;;;;;;;3.88;2.28;;;;;;;;;;5056498;28;20100;-22
2023/04/06 00:20:40;;;;;;;1.80;1.45;;;;;;;;;;5056572;28;20118;-24
2023/04/06 00:23:06;;;;;;;5.10;2.15;;;;;;;;;;5056746;28;20025;-25
2023/04/06 00:25:32;;;;;;;2.35;1.50;;;;;;;;;;5038887;28;20360;-22
2023/04/06 00:27:58;;;;;;;5.95;1.63;;;;;;;;;;5056355;28;20033;-24
2023/04/06 00:30:24;;;;;;;5.28;1.80;;;;;;;;;;5056363;28;20096;-22
2023/04/06 00:32:51;;;;;;;4.05;1.83;;;;;;;;;;5056267;28;20025;-22
2023/04/06 00:35:17;;;;;;;4.30;1.40;;;;;;;;;;5056519;28;20032;-23
2023/04/06 00:37:43;;;;;;;3.80;2.50;;;;;;;;;;5055719;28;20024;-25
2023/04/06 00:40:09;;;;;;;1.77;1.50;;;;;;;;;;5056378;28;20048;-30
2023/04/06 00:42:36;;;;;;;3.55;1.95;;;;;;;;;;5055971;28;20395;-25
2023/04/06 00:45:02;;;;;;;1.52;1.10;;;;;;;;;;5056384;28;20029;-24
2023/04/06 00:47:29;;;;;;;3.50;1.67;;;;;;;;;;5056193;28;20036;-23
2023/04/06 00:49:55;;;;;;;6.15;1.65;;;;;;;;;;5056274;28;20038;-25
2023/04/06 00:52:21;;;;;;;2.85;1.83;;;;;;;;;;5056069;28;20067;-23
2023/04/06 00:54:48;;;;;;;2.58;1.80;;;;;;;;;;5055819;28;20021;-25
2023/04/06 00:57:14;;;;;;;2.33;1.35;;;;;;;;;;5038202;28;20020;-22
2023/04/06 00:59:40;;;;;;;2.30;1.40;;;;;;;;;;5055808;28;20082;-25
2023/04/06 01:02:07;;;;;;;4.10;1.95;;;;;;;;;;5055763;28;20456;-22
2023/04/06 01:04:33;;;;;;;2.00;1.77;;;;;;;;;;5055934;28;20349;-27
2023/04/06 01:06:59;;;;;;;4.22;1.70;;;;;;;;;;5055563;28;20029;-29
2023/04/06 01:09:26;;;;;;;3.30;1.73;;;;;;;;;;5055598;28;20094;-25
2023/04/06 01:11:52;;;;;;;11.07;2.67;;;;;;;;;;5055734;28;20025;-24
2023/04/06 01:14:18;;;;;;;2.97;1.80;;;;;;;;;;5055493;28;20494;-22
2023/04/06 01:16:44;;;;;;;5.90;1.90;;;;;;;;;;5055497;28;20029;-22
2023/04/06 01:19:11;;;;;;;2.13;1.35;;;;;;;;;;5055234;28;20021;-26
2023/04/06 01:21:38;;;;;;;2.28;1.65;;;;;;;;;;5055615;28;20089;-25
2023/04/06 01:24:04;;;;;;;4.82;2.33;;;;;;;;;;5055323;28;20029;-27
2023/04/06 01:26:31;;;;;;;2.97;1.52;;;;;;;;;;5055224;28;20467;-22
2023/04/06 01:28:57;;;;;;;2.63;1.50;;;;;;;;;;5055151;28;20029;-23
2023/04/06 01:31:23;;;;;;;2.13;1.67;;;;;;;;;;5055030;28;20452;-28
2023/04/06 01:33:50;;;;;;;4.03;1.60;;;;;;;;;;5055158;28;20040;-22
2023/04/06 01:36:16;;;;;;;2.60;1.60;;;;;;;;;;5055029;28;20029;-22
2023/04/06 01:38:42;;;;;;;2.20;1.30;;;;;;;;;;5055007;28;20028;-26
2023/04/06 01:41:08;;;;;;;2.08;1.88;;;;;;;;;;5055284;28;20025;-25
2023/04/06 01:43:35;;;;;;;1.77;1.55;;;;;;;;;;5054800;28;20044;-22
2023/04/06 01:46:01;;;;;;;3.55;1.58;;;;;;;;;;5054888;28;20024;-23
2023/04/06 01:48:28;;;;;;;5.55;1.75;;;;;;;;;;5055094;28;20025;-23
2023/04/06 01:50:54;;;;;;;1.88;1.52;;;;;;;;;;5054744;28;20067;-24
2023/04/06 01:53:20;;;;;;;4.00;1.70;;;;;;;;;;5055374;28;20045;-31
2023/04/06 01:55:47;;;;;;;3.65;1.70;;;;;;;;;;5055083;28;20017;-28
2023/04/06 01:58:13;;;;;;;4.07;2.10;;;;;;;;;;5054817;28;20373;-28
2023/04/06 02:00:39;;;;;;;3.03;1.13;;;;;;;;;;5054679;28;20025;-22
2023/04/06 02:03:06;;;;;;;1.70;1.23;;;;;;;;;;5037094;28;20478;-22
2023/04/06 02:05:37;;;;;;;1.48;1.20;;;;;;;;;;5054941;28;20055;-23
2023/04/06 02:08:05;;;;;;;3.67;1.77;;;;;;;;;;5054545;28;20035;-22
2023/04/06 02:10:31;;;;;;;3.17;1.83;;;;;;;;;;5055152;28;20032;-22
2023/04/06 02:12:57;;;;;;;2.05;1.25;;;;;;;;;;5054770;28;20029;-22
2023/04/06 02:15:23;;;;;;;1.75;1.60;;;;;;;;;;5054555;28;20079;-23
2023/04/06 02:17:49;;;;;;;2.35;1.60;;;;;;;;;;5054574;28;20020;-22
2023/04/06 02:20:15;;;;;;;1.95;1.45;;;;;;;;;;5054472;28;20021;-22
2023/04/06 02:22:41;;;;;;;1.88;1.63;;;;;;;;;;5054714;28;20054;-22
2023/04/06 02:25:08;;;;;;;1.60;1.48;;;;;;;;;;5054705;28;20033;-24
2023/04/06 02:27:35;;;;;;;1.95;1.52;;;;;;;;;;5054538;28;20021;-22
2023/04/06 02:30:01;;;;;;;3.08;1.40;;;;;;;;;;5054328;28;20039;-22
2023/04/06 02:32:27;;;;;;;3.63;1.38;;;;;;;;;;5054566;28;20322;-23
2023/04/06 02:34:53;;;;;;;4.32;1.88;;;;;;;;;;5054366;28;20040;-22
2023/04/06 02:37:19;;;;;;;3.08;1.45;;;;;;;;;;5054507;28;20044;-24
2023/04/06 02:39:46;;;;;;;1.50;1.38;;;;;;;;;;5054260;28;20421;-27
2023/04/06 02:42:12;;;;;;;2.13;1.40;;;;;;;;;;5054547;28;20029;-21
2023/04/06 02:44:38;;;;;;;2.95;1.58;;;;;;;;;;5054121;28;20041;-22
2023/04/06 02:47:04;;;;;;;3.10;1.55;;;;;;;;;;5054444;28;20385;-22
2023/04/06 02:49:30;;;;;;;3.78;1.42;;;;;;;;;;5054217;28;20044;-23
2023/04/06 02:51:56;;;;;;;1.90;1.33;;;;;;;;;;5054410;28;20021;-22
2023/04/06 02:54:22;;;;;;;2.22;1.85;;;;;;;;;;5054445;28;20033;-22
2023/04/06 02:56:48;;;;;;;1.70;1.40;;;;;;;;;;5054414;28;20032;-22
2023/04/06 02:59:14;;;;;;;2.20;1.60;;;;;;;;;;5054059;28;20052;-23
2023/04/06 03:01:40;;;;;;;3.28;1.20;;;;;;;;;;5055234;28;20082;-23
2023/04/06 03:04:07;;;;;;;2.08;1.30;;;;;;;;;;5058219;28;20033;-22
2023/04/06 03:06:33;;;;;;;1.95;1.40;;;;;;;;;;5058227;28;20040;-23
2023/04/06 03:08:59;;;;;;;2.08;1.50;;;;;;;;;;5058113;28;20455;-22
2023/04/06 03:11:26;;;;;;;1.98;1.40;;;;;;;;;;5058033;28;20367;-22
2023/04/06 03:13:52;;;;;;;1.50;1.40;;;;;;;;;;5057807;28;20059;-23
2023/04/06 03:16:18;;;;;;;1.63;1.40;;;;;;;;;;5058025;28;20388;-22
2023/04/06 03:18:45;;;;;;;1.73;1.45;;;;;;;;;;5057682;28;20499;-22
2023/04/06 03:21:11;;;;;;;1.92;1.42;;;;;;;;;;5057883;28;20056;-23
2023/04/06 03:23:37;;;;;;;3.67;1.40;;;;;;;;;;5057883;28;20039;-26
2023/04/06 03:26:03;;;;;;;2.25;1.30;;;;;;;;;;5057548;28;20028;-23
2023/04/06 03:28:30;;;;;;;1.35;1.25;;;;;;;;;;5057424;28;20031;-22
2023/04/06 03:30:56;;;;;;;2.13;1.95;;;;;;;;;;5057730;28;20092;-28
2023/04/06 03:33:22;;;;;;;2.88;1.38;;;;;;;;;;5039861;28;20052;-25
2023/04/06 03:35:48;;;;;;;1.77;1.15;;;;;;;;;;5057434;28;20104;-22
2023/04/06 03:38:14;;;;;;;2.97;1.90;;;;;;;;;;5057301;28;20025;-23
2023/04/06 03:40:40;;;;;;;5.35;1.90;;;;;;;;;;5057867;28;20092;-23
2023/04/06 03:43:06;;;;;;;6.55;1.77;;;;;;;;;;5057105;28;20111;-24
2023/04/06 03:45:32;;;;;;;2.92;1.40;;;;;;;;;;5057228;28;20363;-22
2023/04/06 03:47:59;;;;;;;2.65;1.55;;;;;;;;;;5057116;28;20029;-23
2023/04/06 03:50:25;;;;;;;4.07;1.60;;;;;;;;;;5057397;28;20037;-25
2023/04/06 03:52:51;;;;;;;2.42;1.40;;;;;;;;;;5057279;28;20081;-23
2023/04/06 03:55:17;;;;;;;2.00;1.63;;;;;;;;;;5057018;28;20152;-22
2023/04/06 03:57:43;;;;;;;1.40;1.30;;;;;;;;;;5039765;28;20056;-23
2023/04/06 04:00:10;;;;;;;3.60;1.85;;;;;;;;;;5057207;28;20025;-23
2023/04/06 04:02:36;;;;;;;1.27;1.13;;;;;;;;;;5056842;28;20029;-22
2023/04/06 04:05:02;;;;;;;4.38;1.50;;;;;;;;;;5056711;28;20106;-23
2023/04/06 04:07:28;;;;;;;4.47;1.83;;;;;;;;;;5056603;28;20052;-22
2023/04/06 04:09:54;;;;;;;1.60;1.38;;;;;;;;;;5056967;28;20029;-25
2023/04/06 04:12:20;;;;;;;1.40;1.10;;;;;;;;;;5056206;28;20029;-22
2023/04/06 04:14:46;;;;;;;6.53;3.63;;;;;;;;;;5055716;28;20024;-22
2023/04/06 04:17:12;;;;;;;5.85;1.92;;;;;;;;;;5056460;28;20036;-22
2023/04/06 04:19:39;;;;;;;3.17;2.13;;;;;;;;;;5056753;28;20096;-25
2023/04/06 04:22:06;;;;;;;6.55;2.72;;;;;;;;;;5056717;28;20063;-22
2023/04/06 04:24:32;;;;;;;2.60;1.92;;;;;;;;;;5056329;28;20460;-25
2023/04/06 04:26:58;;;;;;;4.68;1.75;;;;;;;;;;5056481;28;20056;-22
2023/04/06 04:29:24;;;;;;;3.72;1.95;;;;;;;;;;5056612;28;20060;-22
2023/04/06 04:31:51;;;;;;;4.97;2.13;;;;;;;;;;5056118;28;20032;-24
2023/04/06 04:34:20;;;;;;;6.38;2.00;;;;;;;;;;5056450;28;20078;-23
2023/04/06 04:36:46;;;;;;;4.28;1.60;;;;;;;;;;5056114;28;20064;-23
2023/04/06 04:39:12;;;;;;;1.98;1.50;;;;;;;;;;5056269;28;20056;-22
2023/04/06 04:41:39;;;;;;;5.60;1.88;;;;;;;;;;5056607;28;20328;-23
2023/04/06 04:44:05;;;;;;;4.97;1.67;;;;;;;;;;5055687;28;20054;-23
2023/04/06 04:46:31;;;;;;;2.25;1.50;;;;;;;;;;5056049;28;20079;-22
2023/04/06 04:48:57;;;;;;;10.52;2.20;;;;;;;;;;5055806;28;20055;-22
2023/04/06 04:51:24;;;;;;;4.18;1.88;;;;;;;;;;5039023;28;20424;-22
2023/04/06 04:53:50;;;;;;;6.78;2.30;;;;;;;;;;5055880;28;20024;-23
2023/04/06 04:56:16;;;;;;;8.10;1.80;;;;;;;;;;5055740;28;20052;-22
2023/04/06 04:58:42;;;;;;;6.82;1.83;;;;;;;;;;5055637;28;20416;-22
2023/04/06 05:01:09;;;;;;;6.25;2.33;;;;;;;;;;5055886;28;20407;-29
2023/04/06 05:03:35;;;;;;;3.92;1.70;;;;;;;;;;5055566;28;20448;-24
2023/04/06 05:06:01;;;;;;;3.75;1.92;;;;;;;;;;5055470;28;20372;-23
2023/04/06 05:08:28;;;;;;;7.05;2.60;;;;;;;;;;5055660;28;20407;-24
2023/04/06 05:10:54;;;;;;;9.20;2.40;;;;;;;;;;5055465;28;20495;-24
2023/04/06 05:13:20;;;;;;;2.13;1.90;;;;;;;;;;5055396;28;20029;-24
2023/04/06 05:15:46;;;;;;;5.57;1.83;;;;;;;;;;5055626;28;20029;-27
2023/04/06 05:18:12;;;;;;;3.35;1.58;;;;;;;;;;5055528;28;20028;-22
2023/04/06 05:20:39;;;;;;;3.75;1.98;;;;;;;;;;5055590;28;20059;-25
2023/04/06 05:23:05;;;;;;;3.33;1.95;;;;;;;;;;5055521;28;20025;-22
2023/04/06 05:25:32;;;;;;;6.10;1.88;;;;;;;;;;5054954;28;20045;-24
2023/04/06 05:27:59;;;;;;;5.55;1.88;;;;;;;;;;5055033;28;20040;-23
2023/04/06 05:30:25;;;;;;;3.58;1.65;;;;;;;;;;5055233;28;20025;-24
2023/04/06 05:32:51;;;;;;;2.03;1.50;;;;;;;;;;5055125;28;20094;-22
2023/04/06 05:35:17;;;;;;;6.05;1.48;;;;;;;;;;5055134;28;20036;-26
2023/04/06 05:37:44;;;;;;;7.40;2.63;;;;;;;;;;5037590;28;20029;-27
2023/04/06 05:40:10;;;;;;;2.40;1.90;;;;;;;;;;5055217;28;20083;-22
2023/04/06 05:42:38;;;;;;;2.85;1.77;;;;;;;;;;5054795;28;20028;-28
2023/04/06 05:45:04;;;;;;;3.22;2.10;;;;;;;;;;5055179;28;20021;-25
2023/04/06 05:47:31;;;;;;;7.45;2.20;;;;;;;;;;5054830;28;20036;-22
2023/04/06 05:49:57;;;;;;;3.53;2.28;;;;;;;;;;5054887;28;20079;-22
2023/04/06 05:52:23;;;;;;;5.28;2.35;;;;;;;;;;5054725;28;20072;-22
2023/04/06 05:54:49;;;;;;;8.57;2.00;;;;;;;;;;5054721;28;20355;-23
2023/04/06 05:57:18;;;;;;;3.08;1.95;;;;;;;;;;5037066;28;20017;-25
2023/04/06 05:59:44;;;;;;;6.05;2.28;;;;;;;;;;5054732;28;20356;-24
2023/04/06 06:02:11;;;;;;;5.72;2.42;;;;;;;;;;5496199;22;20029;-32
2023/04/06 06:04:37;;;;;;;4.30;1.98;;;;;;;;;;5074632;28;20036;-29
2023/04/06 06:07:03;;;;;;;6.20;2.17;;;;;;;;;;5074597;28;20112;-31
2023/04/06 06:09:29;;;;;;;9.65;2.50;;;;;;;;;;5074373;28;20032;-29
2023/04/06 06:11:55;;;;;;;7.22;2.85;;;;;;;;;;5074730;28;20113;-32
2023/04/06 06:14:21;;;;;;;6.32;1.90;;;;;;;;;;5074373;28;20109;-31
2023/04/06 06:16:48;;;;;;;6.78;2.15;;;;;;;;;;5074363;28;20020;-30
2023/04/06 06:19:14;;;;;;;9.38;2.53;;;;;;;;;;5074474;28;20048;-30
2023/04/06 06:21:40;;;;;;;1.70;1.60;;;;;;;;;;5056637;28;20355;-27
2023/04/06 06:24:07;;;;;;;3.35;2.13;;;;;;;;;;5074460;28;20359;-32
2023/04/06 06:26:36;;;;;;;5.68;1.95;;;;;;;;;;5056919;28;20055;-27
2023/04/06 06:29:03;;;;;;;4.60;2.10;;;;;;;;;;5074551;28;20455;-31
2023/04/06 06:31:29;;;;;;;3.60;2.17;;;;;;;;;;5074239;28;20039;-29
2023/04/06 06:33:55;;;;;;;3.33;1.92;;;;;;;;;;5074838;28;20450;-29
2023/04/06 06:36:21;;;;;;;4.60;2.13;;;;;;;;;;5074916;28;20043;-30
2023/04/06 06:38:48;;;;;;;6.75;2.30;;;;;;;;;;5078400;28;20104;-29
2023/04/06 06:41:14;;;;;;;3.42;1.95;;;;;;;;;;5078899;28;20047;-31
2023/04/06 06:43:40;;;;;;;13.45;3.22;;;;;;;;;;5078539;28;20367;-30
2023/04/06 06:46:06;;;;;;;8.88;2.17;;;;;;;;;;5078153;28;20033;-30
2023/04/06 06:48:33;;;;;;;8.75;2.10;;;;;;;;;;5078520;28;20029;-28
2023/04/06 06:50:59;;;;;;;14.20;2.40;;;;;;;;;;5078525;28;20013;-28
2023/04/06 06:53:25;;;;;;;9.82;3.45;;;;;;;;;;5077953;28;20017;-29
2023/04/06 06:55:51;;;;;;;4.90;1.90;;;;;;;;;;5077987;28;20032;-28
2023/04/06 06:58:21;;;;;;;20.00;4.07;;;;;;;;;;5077990;28;20057;-31
2023/04/06 07:00:47;;;;;;;4.65;2.65;;;;;;;;;;5078145;28;20082;-31
2023/04/06 07:03:13;;;;;;;8.20;2.75;;;;;;;;;;5077484;28;20058;-27
2023/04/06 07:05:39;;;;;;;9.18;2.17;;;;;;;;;;5077868;28;20078;-32
2023/04/06 07:08:05;;;;;;;11.98;2.80;;;;;;;;;;5077897;28;20021;-28
2023/04/06 07:10:32;;;;;;;7.97;2.72;;;;;;;;;;5077693;28;20040;-30
2023/04/06 07:12:58;;;;;;;8.15;2.55;;;;;;;;;;5077337;28;20032;-30
2023/04/06 07:15:24;;;;;;;15.02;2.15;;;;;;;;;;5077880;28;20013;-29
2023/04/06 07:17:52;;;;;;;7.97;2.17;;;;;;;;;;5059844;28;20181;-32
2023/04/06 07:20:18;;;;;;;11.38;2.00;;;;;;;;;;5077927;28;20359;-30
2023/04/06 07:22:44;;;;;;;6.15;2.72;;;;;;;;;;5077855;28;20025;-31
2023/04/06 07:25:11;;;;;;;5.18;3.00;;;;;;;;;;5077612;28;20485;-27
2023/04/06 07:27:37;;;;;;;7.93;1.92;;;;;;;;;;5077508;28;20485;-30
2023/04/06 07:30:03;;;;;;;7.10;2.38;;;;;;;;;;5059832;28;20036;-28
2023/04/06 07:32:29;;;;;;;2.47;1.73;;;;;;;;;;5059981;28;20448;-31
2023/04/06 07:34:56;;;;;;;2.72;2.03;;;;;;;;;;5077579;28;20394;-32
2023/04/06 07:37:23;;;;;;;9.70;2.40;;;;;;;;;;5059587;28;20035;-31
2023/04/06 07:39:49;;;;;;;5.55;2.30;;;;;;;;;;5077408;28;20073;-32
2023/04/06 07:42:15;;;;;;;5.25;2.08;;;;;;;;;;5077095;28;20416;-29
2023/04/06 07:44:43;;;;;;;5.25;3.05;;;;;;;;;;5077383;28;20112;-32
2023/04/06 07:47:09;;;;;;;2.88;2.17;;;;;;;;;;5077213;28;20029;-30
2023/04/06 07:49:35;;;;;;;3.80;1.85;;;;;;;;;;5077243;28;20113;-31
2023/04/06 07:52:02;;;;;;;3.75;1.50;;;;;;;;;;5077396;28;20332;-31
2023/04/06 07:54:29;;;;;;;3.70;1.90;;;;;;;;;;5077757;28;20074;-29
2023/04/06 07:56:55;;;;;;;3.13;2.22;;;;;;;;;;5077636;28;20024;-30
2023/04/06 07:59:21;;;;;;;4.95;1.67;;;;;;;;;;5077133;28;20021;-27
2023/04/06 08:01:47;;;;;;;5.22;1.60;;;;;;;;;;5076978;28;20439;-31
2023/04/06 08:04:13;;;;;;;6.88;1.50;;;;;;;;;;5076497;28;20439;-31
2023/04/06 08:06:40;;;;;;;5.10;1.70;;;;;;;;;;5077219;28;20028;-33
2023/04/06 08:09:08;;;;;;;2.38;1.75;;;;;;;;;;5076818;28;20056;-29
2023/04/06 08:11:34;;;;;;;3.20;1.73;;;;;;;;;;5076985;28;20112;-27
2023/04/06 08:14:00;;;;;;;5.35;3.00;;;;;;;;;;5076416;28;20020;-33
2023/04/06 08:16:26;;;;;;;10.18;3.72;;;;;;;;;;5076787;28;20025;-27
2023/04/06 08:18:52;;;;;;;9.00;2.20;;;;;;;;;;5058807;28;20446;-31
2023/04/06 08:21:19;;;;;;;7.40;2.30;;;;;;;;;;5076332;28;20036;-30
2023/04/06 08:23:46;;;;;;;7.47;2.95;;;;;;;;;;5076278;28;20078;-31
2023/04/06 08:26:12;;;;;;;12.25;2.60;;;;;;;;;;5076326;28;20403;-31
2023/04/06 08:28:38;;;;;;;7.82;2.45;;;;;;;;;;5076113;28;20040;-27
2023/04/06 08:31:08;;;;;;;4.10;2.70;;;;;;;;;;5058223;28;20028;-31
2023/04/06 08:33:39;;;;;;;12.18;3.45;;;;;;;;;;5076004;28;20012;-30
2023/04/06 08:36:09;;;;;;;5.13;3.33;;;;;;;;;;5076439;28;20034;-28
2023/04/06 08:38:36;;;;;;;9.13;3.00;;;;;;;;;;5076258;28;20040;-31
2023/04/06 08:41:07;;;;;;;7.28;2.42;;;;;;;;;;5076041;28;20024;-30
2023/04/06 08:43:34;;;;;;;2.78;2.38;;;;;;;;;;5076395;28;20024;-29
2023/04/06 08:46:00;;;;;;;8.52;2.47;;;;;;;;;;5075861;28;20090;-26
2023/04/06 08:48:27;;;;;;;7.10;2.25;;;;;;;;;;5075895;28;20085;-30
2023/04/06 08:50:53;;;;;;;3.55;2.00;;;;;;;;;;5076122;28;20024;-30
2023/04/06 08:53:19;;;;;;;5.82;2.60;;;;;;;;;;5075750;28;20028;-30
2023/04/06 08:55:46;;;;;;;5.90;2.97;;;;;;;;;;5075866;28;20070;-28
2023/04/06 08:58:12;;;;;;;3.65;2.35;;;;;;;;;;5075656;28;20111;-29
2023/04/06 09:00:40;;;;;;;5.22;1.98;;;;;;;;;;5075163;28;20372;-30
2023/04/06 09:03:07;;;;;;;6.05;2.60;;;;;;;;;;5075425;28;20459;-30
2023/04/06 09:05:33;;;;;;;6.43;3.08;;;;;;;;;;5075847;28;20451;-31
2023/04/06 09:07:59;;;;;;;7.45;3.28;;;;;;;;;;5075599;28;20044;-31
2023/04/06 09:10:26;;;;;;;9.20;3.50;;;;;;;;;;5075543;28;20059;-31
2023/04/06 09:12:52;;;;;;;5.85;2.53;;;;;;;;;;5075631;28;20051;-28
2023/04/06 09:15:22;;;;;;;7.47;2.42;;;;;;;;;;5076011;28;20066;-28
2023/04/06 09:17:48;;;;;;;6.87;2.50;;;;;;;;;;5076017;28;20431;-27
2023/04/06 09:20:16;;;;;;;12.63;3.13;;;;;;;;;;5075671;28;20024;-29
2023/04/06 09:22:43;;;;;;;13.00;3.97;;;;;;;;;;5058272;28;20082;-31
2023/04/06 09:25:10;;;;;;;5.95;2.60;;;;;;;;;;5075203;28;20366;-30
2023/04/06 09:27:37;;;;;;;10.20;2.90;;;;;;;;;;5075215;28;20035;-30
2023/04/06 09:30:06;;;;;;;8.07;2.20;;;;;;;;;;5075548;28;20351;-29
2023/04/06 09:32:32;;;;;;;4.03;2.60;;;;;;;;;;5074968;28;20024;-31
2023/04/06 09:35:08;;;;;;;7.53;3.65;;;;;;;;;;5074992;28;20025;-30
2023/04/06 09:37:35;;;;;;;3.47;2.40;;;;;;;;;;5075802;28;20021;-29
2023/04/06 09:40:08;;;;;;;4.75;2.47;;;;;;;;;;5058353;28;20021;-27
2023/04/06 09:42:35;;;;;;;4.68;2.65;;;;;;;;;;5075084;28;20020;-28
2023/04/06 09:45:04;;;;;;;5.80;2.53;;;;;;;;;;5057241;28;20064;-28
2023/04/06 09:47:32;;;;;;;5.88;2.38;;;;;;;;;;5074925;28;20443;-31
2023/04/06 09:50:00;;;;;;;6.28;2.53;;;;;;;;;;5074891;28;20358;-27
2023/04/06 09:52:28;;;;;;;11.45;2.97;;;;;;;;;;5074680;28;20078;-30
2023/04/06 09:54:56;;;;;;;6.95;3.50;;;;;;;;;;5075092;28;20043;-30
2023/04/06 09:57:26;;;;;;;6.72;3.50;;;;;;;;;;5074661;28;20036;-27
2023/04/06 09:59:55;;;;;;;9.68;3.35;;;;;;;;;;5057697;28;20146;-30
2023/04/06 10:02:27;;;;;;;5.15;1.95;;;;;;;;;;5074209;28;20028;-30
2023/04/06 10:04:59;;;;;;;9.25;2.70;;;;;;;;;;5074694;28;20036;-27
2023/04/06 10:07:27;;;;;;;10.88;1.95;;;;;;;;;;5074975;28;20335;-28
2023/04/06 10:09:54;;;;;;;7.13;2.83;;;;;;;;;;5041236;28;20040;-29
2023/04/06 10:12:20;;;;;;;8.05;3.28;;;;;;;;;;5073285;28;20082;-29
2023/04/06 10:14:46;;;;;;;7.47;2.90;;;;;;;;;;5074630;28;20029;-31
2023/04/06 10:17:12;;;;;;;7.97;3.22;;;;;;;;;;5074351;28;20112;-28
2023/04/06 10:19:53;;;;;;;8.25;2.40;;;;;;;;;;5074545;28;20325;-28
2023/04/06 10:22:25;;;;;;;6.50;2.20;;;;;;;;;;5074223;28;20455;-30
2023/04/06 10:24:51;;;;;;;10.80;3.03;;;;;;;;;;5056708;28;20111;-32
2023/04/06 10:27:28;;;;;;;12.38;2.38;;;;;;;;;;5074259;28;20492;-31
2023/04/06 10:29:54;;;;;;;4.22;2.08;;;;;;;;;;5074371;28;20020;-31
2023/04/06 10:32:20;;;;;;;5.82;2.65;;;;;;;;;;5074136;28;20367;-27
2023/04/06 10:34:46;;;;;;;6.05;3.00;;;;;;;;;;5074484;28;20028;-30
2023/04/06 10:37:16;;;;;;;3.67;1.90;;;;;;;;;;5074560;28;20027;-30
2023/04/06 10:39:58;;;;;;;5.65;2.58;;;;;;;;;;5074493;28;20111;-28
2023/04/06 10:42:42;;;;;;;2.15;1.67;;;;;;;;;;5074004;28;20039;-29
2023/04/06 10:45:19;;;;;;;7.90;2.05;;;;;;;;;;5056558;28;20107;-31
2023/04/06 10:47:45;;;;;;;3.38;2.38;;;;;;;;;;5074155;28;20059;-31
2023/04/06 10:50:15;;;;;;;10.45;3.25;;;;;;;;;;5074168;28;20036;-31
2023/04/06 10:52:41;;;;;;;8.43;3.90;;;;;;;;;;5056327;28;20051;-30
2023/04/06 10:55:12;;;;;;;5.15;2.65;;;;;;;;;;5056706;28;20467;-31
2023/04/06 10:57:38;;;;;;;8.77;2.83;;;;;;;;;;5074127;28;20388;-32
2023/04/06 11:00:05;;;;;;;8.30;3.67;;;;;;;;;;5074079;28;20025;-27
2023/04/06 11:02:32;;;;;;;14.25;3.35;;;;;;;;;;5073782;28;20145;-30
2023/04/06 11:04:58;;;;;;;9.80;3.45;;;;;;;;;;5074329;28;20025;-28
2023/04/06 11:07:26;;;;;;;7.05;3.63;;;;;;;;;;5073934;28;20086;-28
2023/04/06 11:09:52;;;;;;;5.20;3.08;;;;;;;;;;5074203;28;20036;-31
2023/04/06 11:12:26;;;;;;;8.43;3.28;;;;;;;;;;5074033;28;20056;-32
2023/04/06 11:14:55;;;;;;;9.90;3.33;;;;;;;;;;5056370;28;20376;-28
2023/04/06 11:17:28;;;;;;;7.72;3.42;;;;;;;;;;5073837;28;20024;-29
2023/04/06 11:19:55;;;;;;;10.27;3.35;;;;;;;;;;5074107;28;20439;-30
2023/04/06 11:22:22;;;;;;;11.80;3.85;;;;;;;;;;5056745;28;20453;-30
2023/04/06 11:24:48;;;;;;;8.20;3.13;;;;;;;;;;5078142;28;20021;-29
2023/04/06 11:27:18;;;;;;;13.68;3.15;;;;;;;;;;5077615;28;20456;-30
2023/04/06 11:29:47;;;;;;;12.63;4.18;;;;;;;;;;5077687;28;20040;-34
2023/04/06 11:32:21;;;;;;;8.63;2.95;;;;;;;;;;5077392;28;20020;-33
2023/04/06 11:34:47;;;;;;;3.13;2.10;;;;;;;;;;5077304;28;20111;-31
2023/04/06 11:37:14;;;;;;;8.70;3.33;;;;;;;;;;5059646;28;20032;-30
2023/04/06 11:39:51;;;;;;;9.18;2.60;;;;;;;;;;5077163;28;20107;-30
2023/04/06 11:42:24;;;;;;;6.35;2.45;;;;;;;;;;5059469;28;20477;-29
2023/04/06 11:44:56;;;;;;;6.15;3.35;;;;;;;;;;5077111;28;20020;-30
2023/04/06 11:47:38;;;;;;;4.32;3.42;;;;;;;;;;5059404;28;20056;-30
2023/04/06 11:50:08;;;;;;;11.23;4.38;;;;;;;;;;5077297;28;20025;-32
2023/04/06 11:52:34;;;;;;;7.35;2.33;;;;;;;;;;5076896;28;20024;-30
2023/04/06 11:55:10;;;;;;;4.55;2.63;;;;;;;;;;5077023;28;20031;-29
2023/04/06 11:57:36;;;;;;;5.82;2.85;;;;;;;;;;5077242;28;20048;-31
2023/04/06 12:00:03;;;;;;;4.00;2.15;;;;;;;;;;5076857;28;20048;-29
2023/04/06 12:02:29;;;;;;;6.15;2.53;;;;;;;;;;5076495;28;20078;-31
2023/04/06 12:04:55;;;;;;;3.45;2.55;;;;;;;;;;5059147;28;20043;-31
2023/04/06 12:07:21;;;;;;;12.10;2.95;;;;;;;;;;5077275;28;20025;-31
2023/04/06 12:09:47;;;;;;;5.47;1.83;;;;;;;;;;5076669;28;20028;-41
2023/04/06 12:12:13;;;;;;;4.53;2.63;;;;;;;;;;5076715;28;20312;-30
2023/04/06 12:14:40;;;;;;;5.75;2.33;;;;;;;;;;5076596;28;20059;-31
2023/04/06 12:17:06;;;;;;;11.60;3.10;;;;;;;;;;5076856;28;20016;-32
2023/04/06 12:19:32;;;;;;;8.75;3.78;;;;;;;;;;5076595;28;20020;-30
2023/04/06 12:21:58;;;;;;;9.05;2.85;;;;;;;;;;5076611;28;20066;-26
2023/04/06 12:24:24;;;;;;;4.97;2.45;;;;;;;;;;5076345;28;20028;-29
2023/04/06 12:26:50;;;;;;;18.00;4.45;;;;;;;;;;5076636;28;20355;-29
2023/04/06 12:29:17;;;;;;;8.27;3.47;;;;;;;;;;5076699;28;20057;-30
2023/04/06 12:31:44;;;;;;;9.90;3.08;;;;;;;;;;5076097;28;20090;-32
2023/04/06 12:34:10;;;;;;;12.15;2.88;;;;;;;;;;5075689;28;20031;-30
2023/04/06 12:36:37;;;;;;;11.07;2.92;;;;;;;;;;5076192;28;20024;-30
2023/04/06 12:39:03;;;;;;;13.48;2.67;;;;;;;;;;5059012;28;20388;-31
2023/04/06 12:41:30;;;;;;;16.23;2.63;;;;;;;;;;5059060;28;20028;-31
2023/04/06 12:43:56;;;;;;;11.68;2.78;;;;;;;;;;5058421;28;20451;-31
2023/04/06 12:46:22;;;;;;;5.78;2.10;;;;;;;;;;5075975;28;20038;-32
2023/04/06 12:48:49;;;;;;;6.88;2.55;;;;;;;;;;5059037;28;20017;-28
2023/04/06 12:51:15;;;;;;;4.85;2.00;;;;;;;;;;5058184;28;20090;-30
2023/04/06 12:53:42;;;;;;;13.05;3.65;;;;;;;;;;5075979;28;20358;-28
2023/04/06 12:56:17;;;;;;;5.10;2.53;;;;;;;;;;5075909;28;20024;-29
2023/04/06 12:58:43;;;;;;;6.15;2.03;;;;;;;;;;5075716;28;20025;-32
2023/04/06 13:01:14;;;;;;;6.18;2.70;;;;;;;;;;5075861;28;20052;-30
2023/04/06 13:03:40;;;;;;;;;;;;;;;;;;5076189;28;20383;-30
2023/04/06 13:06:08;;;;;;;18.35;4.20;;;;;;;;;;5075989;28;20231;-30
2023/04/06 13:08:37;;;;;;;10.05;2.95;;;;;;;;;;5076132;28;20023;-30
2023/04/06 13:11:03;;;;;;;8.93;2.40;;;;;;;;;;5075407;28;20028;-30
2023/04/06 13:13:29;;;;;;;7.47;2.80;;;;;;;;;;5075571;28;20028;-31
2023/04/06 13:15:59;;;;;;;6.03;2.47;;;;;;;;;;5057747;28;20033;-29
2023/04/06 13:18:26;;;;;;;9.43;3.75;;;;;;;;;;5075309;28;20025;-30
2023/04/06 13:20:52;;;;;;;9.00;2.20;;;;;;;;;;5075337;28;20405;-31
2023/04/06 13:23:18;;;;;;;6.43;3.00;;;;;;;;;;5075450;28;20047;-33
2023/04/06 13:25:45;;;;;;;6.30;3.47;;;;;;;;;;5057569;28;20039;-28
2023/04/06 13:28:11;;;;;;;9.60;2.67;;;;;;;;;;5075462;28;20390;-30
2023/04/06 13:30:37;;;;;;;9.95;3.38;;;;;;;;;;5057698;28;20032;-32
2023/04/06 13:33:04;;;;;;;4.35;2.40;;;;;;;;;;5075250;28;20029;-26
2023/04/06 13:35:30;;;;;;;4.47;2.30;;;;;;;;;;5075483;28;20024;-31
2023/04/06 13:37:56;;;;;;;6.43;2.25;;;;;;;;;;5075218;28;20108;-32
2023/04/06 13:40:22;;;;;;;14.43;4.75;;;;;;;;;;5041061;28;20420;-29
2023/04/06 13:42:49;;;;;;;5.85;2.00;;;;;;;;;;5074984;28;20051;-29
2023/04/06 13:45:15;;;;;;;8.85;2.50;;;;;;;;;;5075009;28;20368;-30
2023/04/06 13:47:41;;;;;;;3.30;2.00;;;;;;;;;;5075544;28;20051;-26
2023/04/06 13:50:07;;;;;;;7.57;1.85;;;;;;;;;;5074826;28;20032;-30
2023/04/06 13:52:35;;;;;;;5.55;2.58;;;;;;;;;;5057326;28;20048;-31
2023/04/06 13:55:02;;;;;;;7.22;2.38;;;;;;;;;;5075301;28;20024;-28
2023/04/06 13:57:29;;;;;;;5.70;2.03;;;;;;;;;;5075119;28;20027;-29
2023/04/06 13:59:55;;;;;;;5.55;2.30;;;;;;;;;;5074663;28;20071;-27
2023/04/06 14:02:26;;;;;;;5.60;2.13;;;;;;;;;;5074786;28;20048;-28
2023/04/06 14:04:53;;;;;;;8.13;2.45;;;;;;;;;;5075063;28;20462;-33
2023/04/06 14:07:21;;;;;;;9.48;2.80;;;;;;;;;;5074810;28;20106;-30
2023/04/06 14:09:48;;;;;;;11.43;2.40;;;;;;;;;;5075402;28;20047;-30
2023/04/06 14:12:14;;;;;;;13.25;3.08;;;;;;;;;;5074481;28;20024;-30
2023/04/06 14:14:40;;;;;;;11.23;3.97;;;;;;;;;;5074837;28;20032;-31
2023/04/06 14:17:06;;;;;;;9.45;2.13;;;;;;;;;;5056766;28;20020;-32
2023/04/06 14:19:32;;;;;;;11.32;3.13;;;;;;;;;;5075272;28;20034;-32
2023/04/06 14:21:58;;;;;;;10.38;2.58;;;;;;;;;;5074427;28;20024;-28
2023/04/06 14:24:25;;;;;;;10.05;2.50;;;;;;;;;;5074514;28;20028;-30
2023/04/06 14:26:52;;;;;;;9.05;3.08;;;;;;;;;;5074518;28;20032;-32
2023/04/06 14:29:19;;;;;;;6.05;3.28;;;;;;;;;;5075534;28;20463;-30
2023/04/06 14:31:46;;;;;;;8.63;3.15;;;;;;;;;;5074355;28;20115;-26
2023/04/06 14:34:12;;;;;;;11.93;5.40;;;;;;;;;;5074672;28;20090;-30
2023/04/06 14:36:38;;;;;;;10.82;3.92;;;;;;;;;;5074518;28;20031;-29
2023/04/06 14:39:05;;;;;;;5.40;2.53;;;;;;;;;;5074615;28;20379;-25